Time;durP1;ratioP1;P1;durP2;ratioP2;P2;SDS_P1;SDS_P2;PMS_P1;PMS_P2;Temp;Humidity;BMP_temperature;BMP_pressure;BME280_temperature;BME280_humidity;BME280_pressure;Samples;Min_cycle;Max_cycle;Signal;HPM_P1;HPM_P2
2022/08/23 00:02:44;;;;;;;2.95;2.70;;;;;;;19.90;54.35;95529.78;4973413;28;20647;-88
2022/08/23 00:09:27;;;;;;;;;;;;;;;;;;;;;
2022/08/23 00:29:00;;;;;;;3.03;2.63;;;;;;;19.63;56.72;95540.78;4993166;28;20277;-90
2022/08/23 00:41:28;;;;;;;2.83;2.63;;;;;;;19.52;57.30;95536.44;4973050;28;20219;-87
2022/08/23 01:08:09;;;;;;;3.40;2.75;;;;;;;19.10;58.34;95532.44;4917982;29;20204;-88
2022/08/23 01:18:22;;;;;;;4.13;2.92;;;;;;;18.60;60.96;95538.19;4914509;29;20697;-87
2022/08/23 01:25:01;;;;;;;2.90;2.70;;;;;;;18.63;61.26;95538.53;4864586;29;20688;-89
2022/08/23 01:31:25;;;;;;;3.97;3.13;;;;;;;18.46;61.63;95545.41;4789330;29;20226;-88
2022/08/23 01:34:44;;;;;;;3.28;2.85;;;;;;;18.26;62.49;95552.75;4821520;29;20229;-88
2022/08/23 01:38:21;;;;;;;3.65;2.80;;;;;;;18.35;62.12;95559.22;4869891;29;20237;-88
2022/08/23 01:41:23;;;;;;;3.08;2.88;;;;;;;18.16;62.82;95550.69;4878521;29;20234;-87
2022/08/23 01:44:36;;;;;;;3.60;2.78;;;;;;;18.16;62.75;95552.50;4890338;29;20218;-87
2022/08/23 01:53:47;;;;;;;3.35;3.05;;;;;;;18.07;62.94;95554.66;4970462;28;20224;-89
2022/08/23 02:00:03;;;;;;;3.65;3.00;;;;;;;18.05;62.52;95554.09;4929449;28;20237;-88
2022/08/23 02:06:05;;;;;;;3.42;3.13;;;;;;;17.57;64.23;95562.72;4981676;28;20219;-87
2022/08/23 02:09:04;;;;;;;3.10;2.90;;;;;;;17.61;64.81;95563.88;4968394;28;20235;-87
2022/08/23 02:25:36;;;;;;;3.45;3.08;;;;;;;17.80;63.79;95572.47;4929103;23;20236;-87
2022/08/23 02:28:44;;;;;;;3.70;3.40;;;;;;;17.77;63.64;95575.50;5028896;28;20217;-87
2022/08/23 02:31:50;;;;;;;4.75;3.08;;;;;;;17.74;63.53;95567.34;5001886;28;20732;-89
2022/08/23 02:44:14;;;;;;;3.72;3.42;;;;;;;17.51;64.28;95579.22;4951121;29;20212;-90
2022/08/23 02:47:06;;;;;;;3.47;3.22;;;;;;;17.51;64.21;95581.06;4938472;29;20209;-88
2022/08/23 02:53:28;;;;;;;3.50;3.20;;;;;;;17.59;63.94;95585.94;5005816;28;20600;-87
2022/08/23 02:59:50;;;;;;;3.55;3.10;;;;;;;17.56;63.65;95589.78;4998580;28;20734;-87
2022/08/23 03:03:16;;;;;;;3.67;3.28;;;;;;;17.49;63.89;95585.69;4969279;28;20269;-87
2022/08/23 03:22:21;;;;;;;3.45;3.15;;;;;;;17.52;63.61;95609.44;4990362;28;20198;-88
2022/08/23 03:34:58;;;;;;;5.50;3.33;;;;;;;17.33;64.74;95620.88;4944279;29;20231;-87
2022/08/23 03:45:12;;;;;;;3.47;3.13;;;;;;;17.31;64.50;95620.34;4834944;29;20297;-87
2022/08/23 03:47:58;;;;;;;3.78;3.15;;;;;;;17.35;64.41;95616.25;5027136;28;20198;-87
2022/08/23 03:50:55;;;;;;;3.72;3.42;;;;;;;17.37;63.91;95624.66;5032308;28;20233;-86
2022/08/23 03:53:22;;;;;;;3.90;3.50;;;;;;;17.29;63.99;95622.34;5022417;28;20238;-87
2022/08/23 03:55:50;;;;;;;3.90;3.50;;;;;;;17.33;63.82;95628.69;5009370;28;20215;-87
2022/08/23 03:58:17;;;;;;;4.30;3.10;;;;;;;17.35;63.73;95624.06;5010001;28;20211;-87
2022/08/23 04:00:43;;;;;;;3.80;3.50;;;;;;;17.41;63.33;95632.81;5026576;28;20303;-87
2022/08/23 04:03:10;;;;;;;4.03;3.70;;;;;;;17.41;63.22;95620.59;5029673;28;20289;-87
2022/08/23 04:05:39;;;;;;;3.60;2.95;;;;;;;17.49;63.01;95632.53;5031924;28;20230;-87
2022/08/23 04:08:09;;;;;;;3.50;3.20;;;;;;;17.56;62.84;95639.25;5030359;28;20279;-88
2022/08/23 04:10:37;;;;;;;7.70;3.05;;;;;;;17.54;62.95;95630.84;5030620;28;20304;-89
2022/08/23 04:13:05;;;;;;;3.47;2.78;;;;;;;17.56;62.92;95638.44;5031655;28;20221;-88
2022/08/23 04:15:31;;;;;;;3.65;3.22;;;;;;;17.50;63.36;95645.34;5031561;28;20253;-89
2022/08/23 04:17:59;;;;;;;4.85;3.17;;;;;;;17.47;63.32;95637.97;5031358;28;20236;-87
2022/08/23 04:20:25;;;;;;;3.90;3.50;;;;;;;17.43;63.42;95636.81;5026026;28;20613;-87
2022/08/23 04:22:54;;;;;;;3.78;3.40;;;;;;;17.40;63.52;95637.22;5032310;28;20252;-87
2022/08/23 04:31:15;;;;;;;;;;;;;;;;;;;;;
2022/08/23 04:37:14;;;;;;;;;;;;;;;;;;;;;
2022/08/23 04:46:47;;;;;;;3.28;2.97;;;;;;;18.71;61.25;95649.53;4990763;28;20230;-86
2022/08/23 04:49:45;;;;;;;3.60;3.00;;;;;;;18.77;61.42;95653.06;4975179;28;20235;-88
2022/08/23 04:52:41;;;;;;;3.40;3.10;;;;;;;18.83;61.57;95652.97;4989426;28;20208;-88
2022/08/23 04:55:43;;;;;;;6.30;3.30;;;;;;;18.76;60.21;95656.69;5029549;23;20237;-88
2022/08/23 05:01:35;;;;;;;6.30;3.40;;;;;;;18.43;61.42;95659.78;5053341;28;20309;-87
2022/08/23 05:04:40;;;;;;;12.68;9.13;;;;;;;18.39;61.58;95664.66;5023565;28;20201;-87
2022/08/23 05:07:30;;;;;;;9.32;8.20;;;;;;;18.32;61.24;95663.13;5031716;28;20329;-86
2022/08/23 05:10:42;;;;;;;5.55;5.05;;;;;;;18.27;62.12;95669.84;4994991;28;20921;-86
2022/08/23 05:28:33;;;;;;;5.20;4.13;;;;;;;19.31;59.93;95691.88;5032017;28;20194;-86
2022/08/23 05:31:36;;;;;;;3.83;3.53;;;;;;;19.46;60.36;95695.81;5012812;28;20225;-86
2022/08/23 05:34:49;;;;;;;;;;;;;;;;;;;;;
2022/08/23 05:37:45;;;;;;;6.18;3.83;;;;;;;19.29;60.47;95699.13;5032576;28;20217;-89
2022/08/23 05:50:05;;;;;;;4.25;3.60;;;;;;;19.65;60.17;95702.53;4973090;28;20746;-87
2022/08/23 05:56:59;;;;;;;;;;;;;;;;;;;;;
2022/08/23 06:00:13;;;;;;;;;;;;;;;;;;;;;
2022/08/23 06:02:41;;;;;;;5.68;3.10;;;;;;;20.02;60.30;95722.09;4973178;28;20211;-87
2022/08/23 06:05:09;;;;;;;3.08;2.78;;;;;;;20.32;59.30;95715.88;4972776;28;20220;-86
2022/08/23 06:07:36;;;;;;;4.47;3.28;;;;;;;20.57;58.51;95715.56;4998754;28;20214;-86
2022/08/23 06:10:05;;;;;;;7.93;3.65;;;;;;;20.63;57.79;95719.84;5017314;28;20238;-86
2022/08/23 06:12:32;;;;;;;4.35;3.40;;;;;;;20.32;57.92;95728.94;5020533;28;20218;-87
2022/08/23 06:14:58;;;;;;;4.00;3.58;;;;;;;20.15;58.38;95734.13;5028111;28;20289;-86
2022/08/23 06:17:25;;;;;;;5.00;3.90;;;;;;;20.09;58.47;95723.78;5041864;28;20252;-86
2022/08/23 06:19:53;;;;;;;3.88;3.40;;;;;;;20.01;58.47;95730.97;5040796;28;20279;-87
2022/08/23 06:22:22;;;;;;;3.83;3.47;;;;;;;19.93;58.65;95726.09;5041937;28;20222;-87
2022/08/23 06:24:50;;;;;;;3.40;3.10;;;;;;;19.89;59.19;95729.41;5042242;28;20230;-87
2022/08/23 06:27:21;;;;;;;3.50;3.20;;;;;;;19.83;59.64;95722.47;5023903;28;20199;-86
2022/08/23 06:29:56;;;;;;;3.45;3.25;;;;;;;19.81;60.01;95727.97;5011692;28;20286;-87
2022/08/23 06:32:36;;;;;;;3.72;3.30;;;;;;;19.87;59.90;95726.22;5000717;28;20218;-86
2022/08/23 06:35:18;;;;;;;5.68;3.78;;;;;;;19.89;59.60;95724.97;5003447;28;20215;-86
2022/08/23 06:38:17;;;;;;;3.85;3.40;;;;;;;19.93;59.78;95730.53;5020873;28;20198;-86
2022/08/23 06:41:18;;;;;;;4.18;2.95;;;;;;;19.97;60.00;95731.69;5018153;28;20227;-86
2022/08/23 06:43:58;;;;;;;4.13;3.20;;;;;;;19.89;59.68;95724.19;5019133;28;20194;-86
2022/08/23 06:46:51;;;;;;;4.05;3.35;;;;;;;19.94;59.11;95725.09;5020482;28;20223;-85
2022/08/23 06:49:18;;;;;;;5.40;3.08;;;;;;;19.92;59.89;95715.88;5011407;28;20259;-86
2022/08/23 06:52:00;;;;;;;6.00;3.08;;;;;;;19.97;60.01;95729.84;5020438;28;20234;-85
2022/08/23 06:54:36;;;;;;;3.22;2.92;;;;;;;20.06;59.32;95726.88;5019456;28;20219;-86
2022/08/23 06:59:57;;;;;;;3.95;2.83;;;;;;;20.28;58.08;95726.00;5018947;28;20252;-85
2022/08/23 07:02:34;;;;;;;3.42;2.95;;;;;;;20.26;58.27;95722.81;5024436;28;20221;-87
2022/08/23 07:05:04;;;;;;;4.95;3.00;;;;;;;20.38;57.72;95725.44;5024851;28;20230;-85
2022/08/23 07:07:35;;;;;;;2.97;2.67;;;;;;;20.52;57.56;95726.72;5023677;28;20206;-85
2022/08/23 07:10:17;;;;;;;2.88;2.67;;;;;;;20.66;57.43;95721.97;5022720;28;20231;-86
2022/08/23 07:15:31;;;;;;;3.47;2.80;;;;;;;20.74;56.45;95724.22;5022452;28;20223;-85
2022/08/23 07:18:12;;;;;;;3.45;2.92;;;;;;;20.88;55.88;95728.13;5024229;28;20210;-87
2022/08/23 07:20:46;;;;;;;2.97;2.75;;;;;;;21.07;55.83;95725.25;5021860;28;20226;-85
2022/08/23 07:23:16;;;;;;;3.92;2.78;;;;;;;21.21;55.77;95729.97;5022262;28;20218;-85
2022/08/23 07:25:43;;;;;;;4.65;2.70;;;;;;;21.43;55.61;95740.50;5022737;28;20210;-86
2022/08/23 07:28:18;;;;;;;3.10;2.80;;;;;;;21.54;54.65;95728.34;5023322;28;20241;-86
2022/08/23 07:30:47;;;;;;;3.60;3.08;;;;;;;21.74;54.47;95725.22;5027905;28;20238;-85
2022/08/23 07:35:57;;;;;;;5.03;2.85;;;;;;;21.99;53.26;95731.53;5022525;28;20214;-85
2022/08/23 07:38:34;;;;;;;2.38;2.17;;;;;;;22.07;53.44;95738.22;5023279;28;20221;-85
2022/08/23 07:41:26;;;;;;;;;;;;;;;;;;;;;
2022/08/23 07:44:30;;;;;;;2.53;2.35;;;;;;;22.24;52.18;95744.19;5022125;28;20195;-85
2022/08/23 07:50:31;;;;;;;4.40;2.30;;;;;;;22.67;51.10;95743.31;5003471;28;20294;-85
2022/08/23 07:53:03;;;;;;;3.08;2.60;;;;;;;22.74;51.29;95743.91;5023393;28;20203;-85
2022/08/23 07:55:41;;;;;;;2.95;2.45;;;;;;;22.95;49.18;95750.16;5017202;28;20599;-90
2022/08/23 07:58:15;;;;;;;3.58;2.40;;;;;;;23.03;49.34;95757.59;5018513;28;20266;-85
2022/08/23 08:00:42;;;;;;;2.65;2.40;;;;;;;23.09;50.06;95755.81;5018143;28;20238;-86
2022/08/23 08:03:16;;;;;;;2.63;2.42;;;;;;;23.11;50.21;95760.78;5018569;28;20207;-86
2022/08/23 08:05:42;;;;;;;3.08;2.30;;;;;;;23.12;48.31;95754.50;5018615;28;20223;-87
2022/08/23 08:08:09;;;;;;;3.33;2.38;;;;;;;23.23;48.98;95764.03;5019607;28;20226;-85
2022/08/23 08:10:39;;;;;;;2.45;2.25;;;;;;;23.34;49.25;95763.84;5017322;28;20253;-85
2022/08/23 08:13:07;;;;;;;2.88;2.30;;;;;;;23.45;47.85;95770.00;5017006;28;20199;-87
2022/08/23 08:15:33;;;;;;;3.67;2.20;;;;;;;23.54;46.06;95762.44;5015609;28;20249;-87
2022/08/23 08:18:00;;;;;;;4.85;2.58;;;;;;;23.53;46.02;95761.66;5016016;28;20579;-85
2022/08/23 08:20:29;;;;;;;3.92;2.30;;;;;;;23.60;44.99;95753.56;5018494;28;20327;-85
2022/08/23 08:22:56;;;;;;;2.97;2.20;;;;;;;23.64;45.56;95757.25;5021944;28;20205;-86
2022/08/23 08:25:23;;;;;;;3.58;2.28;;;;;;;23.73;45.41;95763.63;5019744;28;20226;-85
2022/08/23 08:27:50;;;;;;;2.53;2.00;;;;;;;23.89;45.92;95767.91;5018601;28;20663;-86
2022/08/23 08:30:17;;;;;;;2.90;2.47;;;;;;;24.03;45.02;95770.88;5017347;28;20234;-85
2022/08/23 08:32:43;;;;;;;2.75;2.38;;;;;;;24.13;44.66;95773.53;5017980;28;20729;-87
2022/08/23 08:35:11;;;;;;;3.95;2.20;;;;;;;24.27;44.81;95766.78;5017483;28;20241;-87
2022/08/23 08:37:38;;;;;;;4.68;2.35;;;;;;;24.30;45.69;95768.91;5018505;28;20202;-85
2022/08/23 08:40:05;;;;;;;2.45;2.17;;;;;;;24.43;44.86;95768.44;5017084;28;20227;-85
2022/08/23 08:42:49;;;;;;;9.25;2.83;;;;;;;24.52;44.65;95767.91;5018102;28;20313;-85
2022/08/23 08:45:23;;;;;;;2.45;2.25;;;;;;;24.61;44.16;95771.63;5018032;28;20218;-85
2022/08/23 08:47:57;;;;;;;2.50;2.30;;;;;;;24.72;44.56;95762.69;5018250;28;20272;-85
2022/08/23 08:50:28;;;;;;;3.38;2.40;;;;;;;24.80;44.44;95762.19;5016689;28;20368;-86
2022/08/23 08:53:01;;;;;;;2.90;2.15;;;;;;;24.88;43.66;95764.28;5017841;28;20230;-85
2022/08/23 08:55:32;;;;;;;2.53;2.20;;;;;;;25.07;44.31;95773.28;5016794;28;20227;-85
2022/08/23 08:58:00;;;;;;;4.80;2.30;;;;;;;25.19;41.84;95767.78;5017492;28;20199;-85
2022/08/23 09:00:32;;;;;;;2.33;1.98;;;;;;;25.10;42.13;95772.78;5015960;28;20234;-86
2022/08/23 09:03:03;;;;;;;2.45;2.20;;;;;;;25.17;42.04;95774.38;5017475;28;20234;-86
2022/08/23 09:05:38;;;;;;;2.50;2.25;;;;;;;25.29;40.76;95770.41;5014884;28;20571;-85
2022/08/23 09:08:24;;;;;;;2.72;2.10;;;;;;;25.43;41.00;95770.66;5016804;28;20202;-85
2022/08/23 09:10:55;;;;;;;3.50;2.08;;;;;;;25.62;41.78;95762.97;5016533;28;20227;-85
2022/08/23 09:13:46;;;;;;;2.08;1.90;;;;;;;25.81;40.14;95770.06;5017672;28;20226;-86
2022/08/23 09:16:23;;;;;;;2.53;2.33;;;;;;;25.90;40.71;95772.97;5016639;28;20637;-85
2022/08/23 09:18:53;;;;;;;2.28;2.08;;;;;;;25.97;39.93;95767.41;5017159;28;20226;-85
2022/08/23 09:24:14;;;;;;;3.55;2.30;;;;;;;25.94;39.08;95765.31;5010747;28;20221;-87
2022/08/23 09:26:42;;;;;;;2.92;2.03;;;;;;;25.98;38.06;95758.44;5016977;28;20324;-85
2022/08/23 09:29:21;;;;;;;3.03;2.30;;;;;;;26.01;38.38;95758.66;5017077;28;20281;-85
2022/08/23 09:31:51;;;;;;;2.15;1.95;;;;;;;26.23;38.75;95763.59;5016659;28;20199;-86
2022/08/23 09:34:20;;;;;;;2.60;2.08;;;;;;;26.15;37.58;95762.34;5017637;28;20773;-87
2022/08/23 09:36:47;;;;;;;3.50;1.98;;;;;;;26.30;37.73;95758.06;5016581;28;20211;-85
2022/08/23 09:39:26;;;;;;;5.85;2.20;;;;;;;26.27;37.87;95755.94;5017766;28;20300;-85
2022/08/23 09:41:54;;;;;;;2.88;1.98;;;;;;;26.31;38.00;95760.44;5016789;28;20252;-86
2022/08/23 09:44:33;;;;;;;8.63;2.35;;;;;;;26.28;38.23;95752.25;5016381;28;20203;-86
2022/08/23 09:47:11;;;;;;;8.48;2.53;;;;;;;26.49;38.30;95761.69;5015818;28;20233;-85
2022/08/23 09:49:39;;;;;;;6.28;2.95;;;;;;;26.57;37.56;95755.00;5014928;28;20298;-87
2022/08/23 09:52:19;;;;;;;7.18;2.33;;;;;;;26.61;36.72;95761.34;5014953;28;20209;-85
2022/08/23 09:54:59;;;;;;;2.30;2.10;;;;;;;26.70;37.45;95765.78;5014930;28;20325;-86
2022/08/23 09:57:29;;;;;;;2.63;2.10;;;;;;;26.88;36.87;95763.56;5014865;28;20202;-85
2022/08/23 10:00:00;;;;;;;7.03;3.38;;;;;;;26.86;37.28;95757.75;5015662;28;20231;-86
2022/08/23 10:02:31;;;;;;;4.07;2.40;;;;;;;26.99;37.99;95757.94;5014345;28;20265;-85
2022/08/23 10:05:01;;;;;;;4.97;2.53;;;;;;;26.88;37.40;95751.13;5015154;28;20233;-86
2022/08/23 10:07:32;;;;;;;2.83;2.33;;;;;;;26.87;37.53;95752.19;5014248;28;20697;-86
2022/08/23 10:10:27;;;;;;;2.92;2.50;;;;;;;26.92;37.54;95746.09;5015691;28;20721;-86
2022/08/23 10:12:57;;;;;;;2.90;2.55;;;;;;;27.05;38.39;95745.47;5015928;28;20202;-89
2022/08/23 10:15:38;;;;;;;3.58;2.20;;;;;;;27.13;37.75;95747.53;5015962;28;20226;-87
2022/08/23 10:22:13;;;;;;;2.72;2.30;;;;;;;27.13;37.00;95740.38;4984043;28;20738;-89
2022/08/23 10:24:45;;;;;;;4.93;2.40;;;;;;;27.26;36.34;95744.25;4994015;28;20273;-90
2022/08/23 10:30:16;;;;;;;4.68;2.40;;;;;;;27.42;37.21;95747.53;4987684;28;20233;-88
2022/08/23 10:33:34;;;;;;;4.38;2.30;;;;;;;27.40;34.57;95747.81;4999259;28;20219;-89
2022/08/23 10:36:59;;;;;;;3.15;1.83;;;;;;;27.27;33.85;95743.19;4937111;29;20304;-92
2022/08/23 10:43:25;;;;;;;;;;;;;;;;;;;;;
2022/08/23 10:46:16;;;;;;;2.15;1.83;;;;;;;27.18;33.52;95742.19;4886104;29;20318;-88
2022/08/23 10:49:01;;;;;;;4.75;1.75;;;;;;;27.38;33.17;95736.72;4883858;29;20211;-90
2022/08/23 10:51:32;;;;;;;2.67;2.10;;;;;;;27.42;33.18;95736.97;4906431;29;20300;-85
2022/08/23 10:54:05;;;;;;;2.58;1.80;;;;;;;27.36;33.09;95743.38;4986084;28;20241;-85
2022/08/23 10:56:33;;;;;;;2.70;1.80;;;;;;;27.31;33.93;95741.56;5026764;28;20257;-84
2022/08/23 10:59:03;;;;;;;2.28;2.00;;;;;;;27.31;33.11;95733.63;5021984;28;20246;-85
2022/08/23 11:01:37;;;;;;;2.25;2.05;;;;;;;27.18;31.71;95737.69;5026137;28;20206;-84
2022/08/23 11:04:08;;;;;;;4.28;1.75;;;;;;;27.34;33.86;95741.00;5026004;28;20201;-85
2022/08/23 11:06:49;;;;;;;2.03;1.58;;;;;;;27.32;31.40;95734.44;5026545;28;20799;-85
2022/08/23 11:09:47;;;;;;;1.60;1.50;;;;;;;27.39;31.22;95732.22;5024908;28;21032;-85
2022/08/23 11:12:30;;;;;;;2.67;1.55;;;;;;;27.43;31.43;95736.69;5024925;28;20198;-85
2022/08/23 11:15:38;;;;;;;1.85;1.63;;;;;;;27.51;31.76;95727.38;5025765;28;20230;-84
2022/08/23 11:18:07;;;;;;;2.05;1.80;;;;;;;27.58;32.76;95729.69;4982885;28;20211;-86
2022/08/23 11:20:59;;;;;;;1.73;1.63;;;;;;;27.54;33.09;95734.72;5004632;28;20674;-85
2022/08/23 11:23:39;;;;;;;2.20;1.73;;;;;;;27.65;32.58;95722.22;5005790;28;20249;-85
2022/08/23 11:26:08;;;;;;;2.13;1.60;;;;;;;27.68;33.06;95725.09;5005457;28;20222;-85
2022/08/23 11:28:41;;;;;;;3.10;1.58;;;;;;;27.64;31.93;95725.94;5004261;28;20274;-85
2022/08/23 11:31:22;;;;;;;2.42;1.52;;;;;;;27.70;32.34;95727.47;5003953;28;20208;-86
2022/08/23 11:33:52;;;;;;;2.05;1.63;;;;;;;27.75;32.71;95727.41;5006290;28;20721;-85
2022/08/23 11:36:22;;;;;;;2.35;1.60;;;;;;;27.82;31.71;95728.66;5004279;28;20699;-85
2022/08/23 11:39:11;;;;;;;2.08;1.40;;;;;;;27.87;31.42;95722.50;5002938;28;20248;-85
2022/08/23 11:42:09;;;;;;;1.92;1.73;;;;;;;27.93;31.21;95726.66;5002880;28;20208;-87
2022/08/23 11:44:41;;;;;;;3.05;1.67;;;;;;;27.82;31.29;95725.22;5004406;28;20227;-85
2022/08/23 11:47:10;;;;;;;1.60;1.40;;;;;;;27.73;31.29;95714.44;4999470;28;20233;-85
2022/08/23 11:49:52;;;;;;;1.85;1.60;;;;;;;27.85;32.25;95722.78;5013428;28;20234;-85
2022/08/23 11:52:36;;;;;;;1.65;1.48;;;;;;;27.98;30.72;95734.53;5023146;28;20202;-85
2022/08/23 11:55:21;;;;;;;1.70;1.60;;;;;;;28.09;30.91;95724.66;5023658;28;20231;-86
2022/08/23 11:57:56;;;;;;;4.53;1.85;;;;;;;27.97;31.06;95729.53;5023381;28;20210;-86
2022/08/23 12:00:28;;;;;;;2.00;1.70;;;;;;;27.96;31.86;95727.97;5022392;28;20820;-85
2022/08/23 12:03:01;;;;;;;2.90;1.70;;;;;;;27.99;31.67;95724.75;5023228;28;20272;-86
2022/08/23 12:05:54;;;;;;;10.15;1.85;;;;;;;28.07;32.35;95722.28;5023461;28;20218;-87
2022/08/23 12:08:33;;;;;;;1.50;1.40;;;;;;;28.11;31.06;95717.97;5023409;28;20211;-86
2022/08/23 12:11:04;;;;;;;1.77;1.60;;;;;;;28.05;30.67;95715.69;5021799;28;20226;-87
2022/08/23 12:13:45;;;;;;;1.80;1.67;;;;;;;27.72;31.53;95712.88;5022932;28;20222;-86
2022/08/23 12:16:29;;;;;;;1.85;1.75;;;;;;;27.71;31.26;95716.56;5022941;28;20253;-87
2022/08/23 12:18:58;;;;;;;1.88;1.77;;;;;;;27.97;32.65;95721.59;5021755;28;20238;-87
2022/08/23 12:21:31;;;;;;;2.30;1.60;;;;;;;28.16;32.85;95720.56;5021841;28;20203;-87
2022/08/23 12:24:02;;;;;;;2.17;1.80;;;;;;;28.29;31.31;95720.97;5023528;28;20208;-86
2022/08/23 12:26:34;;;;;;;2.08;1.70;;;;;;;28.26;29.93;95724.19;5022622;28;20214;-87
2022/08/23 12:29:04;;;;;;;3.42;1.65;;;;;;;28.22;30.11;95720.53;5021988;28;20246;-85
2022/08/23 12:31:37;;;;;;;3.15;1.50;;;;;;;28.25;29.36;95714.66;5021853;28;20203;-86
2022/08/23 12:34:17;;;;;;;1.83;1.52;;;;;;;28.31;29.26;95726.75;5023841;28;20852;-86
2022/08/23 12:36:50;;;;;;;1.70;1.55;;;;;;;28.42;29.88;95717.63;5024141;28;20729;-85
2022/08/23 12:39:33;;;;;;;2.05;1.80;;;;;;;28.49;29.85;95721.47;5023691;28;20238;-86
2022/08/23 12:42:06;;;;;;;2.13;1.48;;;;;;;28.63;29.80;95720.78;5021883;28;20207;-87
2022/08/23 12:44:32;;;;;;;2.25;1.58;;;;;;;28.59;29.80;95712.59;5023202;28;20698;-87
2022/08/23 12:47:11;;;;;;;1.67;1.52;;;;;;;28.72;30.46;95717.16;5023004;28;20732;-85
2022/08/23 12:49:38;;;;;;;3.58;1.70;;;;;;;28.68;31.54;95707.41;5022803;28;20234;-86
2022/08/23 12:52:08;;;;;;;3.67;1.70;;;;;;;28.84;32.09;95706.16;5022201;28;20207;-85
2022/08/23 12:54:41;;;;;;;3.25;1.98;;;;;;;28.98;30.88;95711.50;5021718;28;20597;-86
2022/08/23 12:57:12;;;;;;;2.22;1.58;;;;;;;28.99;30.74;95707.78;5023656;28;20214;-86
2022/08/23 12:59:43;;;;;;;1.73;1.63;;;;;;;29.03;30.34;95714.09;5021646;28;20235;-86
2022/08/23 13:02:14;;;;;;;1.88;1.60;;;;;;;28.99;30.24;95705.13;5019793;28;20207;-86
2022/08/23 13:04:42;;;;;;;3.40;1.60;;;;;;;28.92;29.13;95708.13;5018410;28;20302;-86
2022/08/23 13:07:15;;;;;;;1.50;1.40;;;;;;;28.94;29.50;95702.56;5019787;28;20206;-87
2022/08/23 13:09:43;;;;;;;1.63;1.52;;;;;;;29.02;30.01;95691.28;5021171;28;20237;-87
2022/08/23 13:12:14;;;;;;;2.97;1.63;;;;;;;28.94;29.44;95695.38;5022252;28;20203;-87
2022/08/23 13:14:45;;;;;;;2.75;1.70;;;;;;;29.03;29.66;95691.00;5023808;28;20226;-87
2022/08/23 13:17:19;;;;;;;1.63;1.50;;;;;;;29.05;29.32;95693.38;5022840;28;20225;-87
2022/08/23 13:19:47;;;;;;;3.80;1.70;;;;;;;28.93;29.36;95691.16;5022106;28;20227;-88
2022/08/23 13:22:21;;;;;;;2.88;1.92;;;;;;;28.98;29.57;95688.44;5021228;28;20199;-88
2022/08/23 13:25:02;;;;;;;1.98;1.80;;;;;;;28.98;28.56;95687.66;5023581;28;20222;-87
2022/08/23 13:27:31;;;;;;;1.60;1.50;;;;;;;29.07;29.50;95680.59;5021957;28;20211;-87
2022/08/23 13:30:00;;;;;;;1.65;1.55;;;;;;;29.12;30.22;95683.16;5022074;28;20237;-87
2022/08/23 13:32:33;;;;;;;3.20;1.60;;;;;;;29.25;29.71;95676.31;5020715;28;20983;-87
2022/08/23 13:35:32;;;;;;;1.98;1.67;;;;;;;29.32;28.69;95682.00;5023322;28;20730;-87
2022/08/23 13:38:08;;;;;;;3.20;1.58;;;;;;;29.23;30.42;95678.47;5022112;28;20694;-86
2022/08/23 13:40:42;;;;;;;1.77;1.67;;;;;;;29.28;29.36;95678.38;5021180;28;20268;-87
2022/08/23 13:43:13;;;;;;;1.63;1.52;;;;;;;29.31;28.78;95669.84;5022566;28;20205;-87
2022/08/23 13:45:47;;;;;;;1.95;1.50;;;;;;;29.17;27.84;95675.13;5023007;28;20214;-87
2022/08/23 13:48:19;;;;;;;2.28;1.50;;;;;;;29.15;27.36;95671.97;5023238;28;20199;-87
2022/08/23 13:50:45;;;;;;;1.60;1.50;;;;;;;29.07;28.01;95673.41;5020064;28;20309;-87
2022/08/23 13:53:12;;;;;;;1.83;1.20;;;;;;;29.10;27.38;95669.41;5021582;28;20206;-87
2022/08/23 13:55:43;;;;;;;2.00;1.60;;;;;;;29.29;28.54;95672.78;5021709;28;20284;-87
2022/08/23 13:58:11;;;;;;;2.38;1.50;;;;;;;29.34;27.73;95667.38;5021436;28;20203;-87
2022/08/23 14:00:41;;;;;;;1.40;1.30;;;;;;;29.45;26.43;95665.34;5000384;28;20231;-87
2022/08/23 14:03:11;;;;;;;1.40;1.30;;;;;;;29.44;26.77;95663.81;4999473;28;20207;-87
2022/08/23 14:05:46;;;;;;;2.30;1.52;;;;;;;29.31;25.84;95662.66;5020080;28;20709;-87
2022/08/23 14:08:17;;;;;;;1.40;1.30;;;;;;;29.13;26.43;95655.56;5003683;28;20214;-87
2022/08/23 14:10:46;;;;;;;1.95;1.50;;;;;;;29.16;28.23;95660.28;5019376;28;20230;-87
2022/08/23 14:13:16;;;;;;;3.30;1.33;;;;;;;29.29;28.25;95661.38;5022829;28;20237;-87
2022/08/23 14:15:44;;;;;;;1.60;1.50;;;;;;;29.33;28.47;95660.50;5007834;28;20262;-87
2022/08/23 14:18:12;;;;;;;2.03;1.35;;;;;;;29.36;28.08;95657.28;5013375;28;20277;-88
2022/08/23 14:20:39;;;;;;;2.38;1.50;;;;;;;29.32;27.82;95655.50;5024892;28;20234;-87
2022/08/23 14:23:05;;;;;;;3.05;1.50;;;;;;;29.35;28.59;95652.25;5007035;28;20234;-87
2022/08/23 14:25:32;;;;;;;1.75;1.58;;;;;;;29.37;28.15;95655.41;5005604;28;20223;-87
2022/08/23 14:28:00;;;;;;;1.80;1.70;;;;;;;29.37;27.53;95652.75;5006176;28;20210;-87
2022/08/23 14:30:30;;;;;;;1.90;1.48;;;;;;;29.38;27.41;95651.69;5009384;28;20280;-87
2022/08/23 14:32:57;;;;;;;2.40;1.30;;;;;;;29.20;27.68;95648.81;5024619;28;20203;-87
2022/08/23 14:35:23;;;;;;;1.40;1.30;;;;;;;29.09;27.65;95652.69;5025941;28;20256;-86
2022/08/23 14:37:50;;;;;;;1.83;1.45;;;;;;;29.18;27.40;95647.53;5014383;28;20207;-87
2022/08/23 14:40:17;;;;;;;3.47;1.50;;;;;;;29.23;27.91;95647.44;5002504;28;20231;-88
2022/08/23 14:42:45;;;;;;;1.42;1.33;;;;;;;29.25;27.49;95650.56;5005322;28;20204;-88
2022/08/23 14:45:14;;;;;;;1.40;1.30;;;;;;;29.24;26.77;95649.00;5004748;28;20242;-88
2022/08/23 14:47:43;;;;;;;1.60;1.50;;;;;;;29.18;27.68;95648.31;5006270;28;20250;-87
2022/08/23 14:50:12;;;;;;;2.90;1.50;;;;;;;29.27;27.67;95652.91;5004447;28;20320;-86
2022/08/23 14:52:41;;;;;;;3.60;3.30;;;;;;;29.28;26.70;95651.84;5007126;28;20737;-88
2022/08/23 14:55:09;;;;;;;2.60;2.40;;;;;;;29.30;27.21;95658.44;5008007;28;20223;-87
2022/08/23 14:57:35;;;;;;;1.98;1.70;;;;;;;29.27;26.09;95652.91;5012499;28;20191;-87
2022/08/23 15:00:02;;;;;;;1.60;1.50;;;;;;;29.20;26.36;95659.41;5028239;28;20231;-87
2022/08/23 15:02:30;;;;;;;2.45;1.50;;;;;;;29.12;27.75;95657.44;5029252;28;20203;-88
2022/08/23 15:05:01;;;;;;;1.92;1.40;;;;;;;29.09;27.38;95655.34;5028301;28;20669;-87
2022/08/23 15:07:27;;;;;;;2.17;1.98;;;;;;;29.21;27.36;95650.38;5028341;28;20450;-88
2022/08/23 15:09:54;;;;;;;2.00;1.80;;;;;;;29.13;27.53;95660.88;5027289;28;20698;-87
2022/08/23 15:12:21;;;;;;;5.38;4.97;;;;;;;28.97;27.68;95660.34;5027376;28;20213;-86
2022/08/23 15:14:48;;;;;;;3.85;3.53;;;;;;;28.90;28.11;95659.13;5027460;28;20256;-87
2022/08/23 15:17:14;;;;;;;2.33;2.10;;;;;;;28.94;27.57;95655.63;5027849;28;20241;-86
2022/08/23 15:19:42;;;;;;;1.52;1.42;;;;;;;29.00;27.34;95658.97;5027236;28;20234;-87
2022/08/23 15:22:08;;;;;;;1.58;1.40;;;;;;;29.03;27.57;95667.16;5027537;28;20210;-86
2022/08/23 15:24:34;;;;;;;1.73;1.50;;;;;;;29.07;26.45;95662.03;5027889;28;20298;-87
2022/08/23 15:27:03;;;;;;;1.90;1.70;;;;;;;29.07;25.49;95659.38;5028355;28;20241;-86
2022/08/23 15:29:29;;;;;;;3.33;1.90;;;;;;;29.02;25.06;95651.53;5027694;28;20230;-87
2022/08/23 15:31:56;;;;;;;1.67;1.58;;;;;;;28.96;25.13;95656.13;5027184;28;20274;-86
2022/08/23 15:34:22;;;;;;;3.75;1.60;;;;;;;28.77;25.73;95645.53;5026389;28;20235;-86
2022/08/23 15:36:50;;;;;;;1.50;1.40;;;;;;;28.74;26.41;95653.28;5027336;28;20760;-86
2022/08/23 15:39:17;;;;;;;2.55;1.27;;;;;;;28.77;25.95;95650.84;5026465;28;20253;-87
2022/08/23 15:41:44;;;;;;;2.15;1.60;;;;;;;28.73;26.91;95652.47;5027147;28;20552;-86
2022/08/23 15:44:10;;;;;;;1.70;1.60;;;;;;;28.72;26.49;95650.91;5027031;28;20221;-87
2022/08/23 15:46:37;;;;;;;1.73;1.60;;;;;;;28.71;26.66;95653.84;5027896;28;20225;-87
2022/08/23 15:49:10;;;;;;;2.00;1.80;;;;;;;28.73;27.07;95652.47;5026323;28;20231;-86
2022/08/23 15:51:37;;;;;;;1.73;1.30;;;;;;;28.72;27.05;95653.56;5026828;28;20210;-86
2022/08/23 15:54:05;;;;;;;1.88;1.50;;;;;;;28.65;26.90;95658.47;5029717;28;20194;-86
2022/08/23 15:56:36;;;;;;;3.67;1.50;;;;;;;28.46;26.72;95647.09;5025868;28;20227;-87
2022/08/23 15:59:04;;;;;;;1.60;1.50;;;;;;;28.44;27.32;95652.69;5021468;28;20243;-86
2022/08/23 16:02:26;;;;;;;1.80;1.70;;;;;;;28.33;28.42;95653.09;5013720;28;20206;-89
2022/08/23 16:04:56;;;;;;;2.58;1.60;;;;;;;28.40;29.05;95654.31;4977781;28;20228;-84
2022/08/23 16:07:24;;;;;;;3.25;1.95;;;;;;;28.36;29.47;95652.53;4993295;28;20206;-87
2022/08/23 16:10:32;;;;;;;7.15;2.00;;;;;;;28.34;29.38;95647.50;4993115;28;20646;-88